Time;durP1;ratioP1;P1;durP2;ratioP2;P2;SDS_P1;SDS_P2;PMS_P1;PMS_P2;Temp;Humidity;BMP_temperature;BMP_pressure;BME280_temperature;BME280_humidity;BME280_pressure;Samples;Min_cycle;Max_cycle;Signal;HPM_P1;HPM_P2
2022/01/07 00:01:03;;;;;;;18.00;7.63;;;4.60;99.90;;;;;;5069836;28;20048;-74
2022/01/07 00:03:30;;;;;;;24.15;7.47;;;4.30;99.90;;;;;;5054896;28;20039;-74
2022/01/07 00:05:56;;;;;;;18.77;6.93;;;4.10;99.90;;;;;;5053172;28;20527;-74
2022/01/07 00:08:22;;;;;;;15.95;6.45;;;4.10;99.90;;;;;;5053267;28;20045;-75
2022/01/07 00:10:48;;;;;;;16.73;6.88;;;4.20;99.90;;;;;;5070116;28;20051;-73
2022/01/07 00:13:14;;;;;;;19.27;6.55;;;4.10;99.90;;;;;;5078033;28;20044;-74
2022/01/07 00:15:40;;;;;;;17.40;6.25;;;4.10;99.90;;;;;;5053227;28;20086;-74
2022/01/07 00:18:07;;;;;;;16.33;5.78;;;4.10;99.90;;;;;;5069060;28;20080;-73
2022/01/07 00:20:34;;;;;;;18.38;5.93;;;4.10;99.90;;;;;;5069277;28;20396;-75
2022/01/07 00:23:00;;;;;;;20.38;6.38;;;4.10;99.90;;;;;;5065717;28;20135;-74
2022/01/07 00:25:25;;;;;;;15.95;6.88;;;4.10;99.90;;;;;;5053175;28;20127;-74
2022/01/07 00:27:52;;;;;;;15.27;5.50;;;4.20;99.90;;;;;;5087193;28;20049;-74
2022/01/07 00:30:19;;;;;;;21.60;7.03;;;4.10;99.90;;;;;;5106402;28;20056;-74
2022/01/07 00:32:45;;;;;;;18.88;6.40;;;4.10;99.90;;;;;;5073843;28;20039;-74
2022/01/07 00:35:13;;;;;;;12.35;4.55;;;4.20;99.90;;;;;;5073056;28;20053;-74
2022/01/07 00:37:40;;;;;;;14.73;5.45;;;4.10;99.90;;;;;;5073069;28;20048;-74
2022/01/07 00:40:08;;;;;;;17.92;6.28;;;4.20;99.90;;;;;;5056440;28;20090;-74
2022/01/07 00:42:34;;;;;;;11.15;4.10;;;4.10;99.90;;;;;;5106387;28;20082;-75
2022/01/07 00:45:00;;;;;;;18.63;6.85;;;4.40;99.90;;;;;;5089698;28;21336;-74
2022/01/07 00:47:25;;;;;;;9.95;3.75;;;4.20;99.90;;;;;;5107239;28;20037;-75
2022/01/07 00:49:51;;;;;;;14.40;5.97;;;4.50;99.90;;;;;;5088904;28;20504;-75
2022/01/07 00:52:17;;;;;;;20.13;7.30;;;4.10;99.90;;;;;;5105129;28;20044;-75
2022/01/07 00:54:43;;;;;;;13.73;6.00;;;4.10;99.90;;;;;;5117180;27;20051;-74
2022/01/07 00:57:08;;;;;;;13.63;5.32;;;4.30;99.90;;;;;;5059972;28;20039;-74
2022/01/07 00:59:34;;;;;;;15.48;5.43;;;4.10;99.90;;;;;;5062506;28;20036;-74
2022/01/07 01:02:00;;;;;;;12.80;5.47;;;4.60;99.90;;;;;;5073601;28;20488;-74
2022/01/07 01:04:26;;;;;;;22.75;6.47;;;4.40;99.90;;;;;;5056229;28;20377;-75
2022/01/07 01:06:52;;;;;;;15.10;4.78;;;4.10;99.90;;;;;;5101424;28;20048;-76
2022/01/07 01:09:17;;;;;;;17.08;6.60;;;4.00;99.90;;;;;;5066198;28;20469;-75
2022/01/07 01:11:43;;;;;;;12.35;5.40;;;4.00;99.90;;;;;;5091832;28;20036;-76
2022/01/07 01:14:09;;;;;;;14.80;5.68;;;4.30;99.90;;;;;;5081045;28;20076;-75
2022/01/07 01:16:36;;;;;;;16.40;5.57;;;3.90;99.90;;;;;;5106891;28;20090;-76
2022/01/07 01:19:03;;;;;;;14.60;5.43;;;4.70;99.90;;;;;;5105769;28;20071;-76
2022/01/07 01:21:29;;;;;;;17.13;6.40;;;4.70;99.90;;;;;;5090067;28;20032;-76
2022/01/07 01:23:55;;;;;;;14.70;5.45;;;3.80;99.90;;;;;;5079911;28;20042;-76
2022/01/07 01:26:21;;;;;;;17.65;6.40;;;3.80;99.90;;;;;;5089680;28;20075;-76
2022/01/07 01:28:47;;;;;;;17.45;6.20;;;3.90;99.90;;;;;;5088974;28;20445;-76
2022/01/07 01:31:15;;;;;;;19.40;7.13;;;3.70;99.90;;;;;;5055553;28;20055;-75
2022/01/07 01:33:45;;;;;;;17.33;5.78;;;4.40;99.90;;;;;;5056159;28;20044;-76
2022/01/07 01:36:12;;;;;;;16.27;6.25;;;4.00;99.90;;;;;;5089251;28;20520;-75
2022/01/07 01:38:38;;;;;;;20.00;6.88;;;3.70;99.90;;;;;;5088190;28;20377;-76
2022/01/07 01:41:06;;;;;;;19.02;6.55;;;3.70;99.90;;;;;;5070734;28;20040;-75
2022/01/07 01:43:32;;;;;;;14.75;5.45;;;3.80;99.90;;;;;;5072301;28;20041;-75
2022/01/07 01:45:58;;;;;;;16.95;6.35;;;4.30;99.90;;;;;;5055836;28;20037;-74
2022/01/07 01:48:24;;;;;;;18.70;5.72;;;3.70;99.90;;;;;;5055331;28;20084;-75
2022/01/07 01:50:51;;;;;;;8.88;4.00;;;3.70;99.90;;;;;;5055469;28;20465;-74
2022/01/07 01:53:17;;;;;;;15.80;6.60;;;3.70;99.90;;;;;;5055735;28;20076;-75
2022/01/07 01:55:44;;;;;;;15.48;5.78;;;3.70;99.90;;;;;;5072069;28;20127;-75
2022/01/07 01:58:11;;;;;;;16.92;6.50;;;3.70;99.90;;;;;;5054784;28;20047;-74
2022/01/07 02:00:37;;;;;;;19.90;6.90;;;4.60;99.90;;;;;;5071617;28;20048;-75
2022/01/07 02:03:03;;;;;;;16.25;7.18;;;3.70;99.90;;;;;;5059583;28;20380;-75
2022/01/07 02:05:28;;;;;;;14.02;5.40;;;3.70;99.90;;;;;;5105924;28;20040;-75
2022/01/07 02:07:55;;;;;;;15.50;8.23;;;4.70;99.90;;;;;;5087605;28;20048;-75
2022/01/07 02:10:20;;;;;;;16.50;7.05;;;3.70;99.90;;;;;;5088246;28;20045;-75
2022/01/07 02:12:47;;;;;;;20.40;7.40;;;3.70;99.90;;;;;;5085295;28;20048;-75
2022/01/07 02:15:14;;;;;;;12.70;5.97;;;3.70;99.90;;;;;;5105776;28;20101;-75
2022/01/07 02:17:45;;;;;;;19.48;6.22;;;4.70;99.90;;;;;;5102289;28;20044;-74
2022/01/07 02:20:13;;;;;;;7.88;3.55;;;3.70;99.90;;;;;;5105303;28;20055;-75
2022/01/07 02:22:39;;;;;;;15.68;7.97;;;3.70;99.90;;;;;;5071692;28;20039;-75
2022/01/07 02:25:05;;;;;;;19.35;7.30;;;3.70;99.90;;;;;;5071116;28;20079;-75
2022/01/07 02:27:36;;;;;;;13.65;5.53;;;3.70;99.90;;;;;;5055386;28;20492;-75
2022/01/07 02:30:03;;;;;;;23.27;7.37;;;3.70;99.90;;;;;;5070719;28;20051;-75
2022/01/07 02:32:29;;;;;;;19.08;8.30;;;3.70;99.90;;;;;;5063046;28;20040;-75
2022/01/07 02:34:54;;;;;;;15.30;6.68;;;3.70;99.90;;;;;;5071365;28;20036;-75
2022/01/07 02:37:20;;;;;;;18.95;7.15;;;3.70;99.90;;;;;;5070972;28;20055;-75
2022/01/07 02:39:49;;;;;;;21.15;8.75;;;3.70;99.90;;;;;;5054105;28;20040;-76
2022/01/07 02:42:14;;;;;;;15.15;7.15;;;3.70;99.90;;;;;;5055565;28;20049;-75
2022/01/07 02:44:40;;;;;;;17.88;6.85;;;3.70;99.90;;;;;;5088189;28;20055;-75
2022/01/07 02:47:06;;;;;;;21.23;8.05;;;4.60;99.90;;;;;;5095360;28;20037;-76
2022/01/07 02:49:32;;;;;;;18.15;7.85;;;3.70;99.90;;;;;;5104162;28;20044;-76
2022/01/07 02:51:58;;;;;;;12.40;5.88;;;3.70;99.90;;;;;;5097049;28;20458;-76
2022/01/07 02:54:26;;;;;;;15.25;5.97;;;4.70;99.90;;;;;;5070913;28;20085;-76
2022/01/07 02:56:52;;;;;;;20.23;7.57;;;4.00;99.90;;;;;;5070277;28;20040;-76
2022/01/07 02:59:19;;;;;;;18.33;8.48;;;4.40;99.90;;;;;;5053607;28;20055;-76
2022/01/07 03:01:45;;;;;;;22.52;9.23;;;3.70;99.90;;;;;;5070749;28;20048;-76
2022/01/07 03:04:11;;;;;;;20.88;10.25;;;4.40;99.90;;;;;;5034266;28;20474;-76
2022/01/07 03:06:37;;;;;;;19.02;9.50;;;4.00;99.90;;;;;;5082940;28;20072;-76
2022/01/07 03:09:05;;;;;;;17.45;8.75;;;3.80;99.90;;;;;;5070837;28;20048;-76
2022/01/07 03:11:30;;;;;;;20.63;8.55;;;4.50;99.90;;;;;;5054141;28;20056;-76
2022/01/07 03:13:56;;;;;;;17.02;9.20;;;3.70;99.90;;;;;;5082795;28;20500;-76
2022/01/07 03:16:22;;;;;;;15.02;7.70;;;3.80;99.90;;;;;;5104469;28;20314;-76
2022/01/07 03:18:48;;;;;;;26.23;11.02;;;3.80;99.90;;;;;;5103778;28;20043;-76
2022/01/07 03:21:14;;;;;;;24.38;9.85;;;3.80;99.90;;;;;;5103693;28;20133;-76
2022/01/07 03:23:41;;;;;;;18.17;7.18;;;3.80;99.90;;;;;;5070799;28;20048;-76
2022/01/07 03:26:10;;;;;;;14.13;7.38;;;3.80;99.90;;;;;;5053943;28;20072;-76
2022/01/07 03:28:38;;;;;;;19.33;9.45;;;3.80;99.90;;;;;;5070312;28;20388;-76
2022/01/07 03:31:06;;;;;;;21.85;9.05;;;3.90;99.90;;;;;;5053801;28;20057;-76
2022/01/07 03:33:32;;;;;;;22.73;10.82;;;3.80;99.90;;;;;;5097894;28;20032;-76
2022/01/07 03:35:57;;;;;;;24.02;10.73;;;3.80;99.90;;;;;;5053392;28;20043;-76
2022/01/07 03:38:23;;;;;;;27.77;11.63;;;4.00;99.90;;;;;;5087214;28;20492;-76
2022/01/07 03:40:49;;;;;;;14.38;7.85;;;3.80;99.90;;;;;;5095584;28;20040;-75
2022/01/07 03:43:15;;;;;;;24.17;11.02;;;3.80;99.90;;;;;;5100071;28;20425;-75
2022/01/07 03:45:41;;;;;;;24.55;10.10;;;3.80;99.90;;;;;;5053957;28;20131;-75
2022/01/07 03:48:07;;;;;;;12.48;6.22;;;3.80;99.90;;;;;;5068412;28;20048;-74
2022/01/07 03:50:33;;;;;;;17.83;8.65;;;4.40;99.90;;;;;;5102078;28;20647;-75
2022/01/07 03:52:59;;;;;;;16.52;9.65;;;3.80;99.90;;;;;;5101758;28;20041;-74
2022/01/07 03:55:28;;;;;;;22.50;11.40;;;3.90;99.90;;;;;;5100273;28;20441;-75
2022/01/07 03:57:54;;;;;;;21.55;11.18;;;3.80;99.90;;;;;;5102913;28;20041;-75
2022/01/07 04:00:23;;;;;;;23.83;10.68;;;4.50;99.90;;;;;;5094813;28;20032;-75
2022/01/07 04:02:50;;;;;;;21.35;11.73;;;3.80;99.90;;;;;;5077418;28;20397;-75
2022/01/07 04:05:19;;;;;;;20.60;9.50;;;3.90;99.90;;;;;;5068724;28;20044;-76
2022/01/07 04:07:45;;;;;;;17.15;9.18;;;3.90;99.90;;;;;;5065015;28;20478;-75
2022/01/07 04:10:11;;;;;;;19.48;9.70;;;3.80;99.90;;;;;;5104139;28;20044;-77
2022/01/07 04:12:37;;;;;;;21.33;10.85;;;4.00;99.90;;;;;;5085269;28;20340;-75
2022/01/07 04:17:32;;;;;;;23.17;11.57;;;3.90;99.90;;;;;;5092669;28;20110;-74
2022/01/07 04:19:58;;;;;;;22.90;10.30;;;3.90;99.90;;;;;;5093811;28;20141;-74
2022/01/07 04:22:23;;;;;;;23.83;11.77;;;3.90;99.90;;;;;;5057537;28;20052;-75
2022/01/07 04:24:49;;;;;;;21.58;10.82;;;3.90;99.90;;;;;;5073324;28;20043;-75
2022/01/07 04:27:15;;;;;;;15.23;7.97;;;4.90;99.90;;;;;;5054919;28;20381;-74
2022/01/07 04:29:41;;;;;;;14.20;7.55;;;4.00;99.90;;;;;;5101111;28;20036;-75
2022/01/07 04:32:07;;;;;;;22.65;11.65;;;4.00;99.90;;;;;;5107794;28;20389;-75
2022/01/07 04:34:33;;;;;;;18.42;10.00;;;4.00;99.90;;;;;;5054413;28;20487;-75
2022/01/07 04:36:58;;;;;;;19.25;10.35;;;4.40;99.90;;;;;;5056775;28;20032;-75
2022/01/07 04:39:24;;;;;;;22.35;12.07;;;4.30;99.90;;;;;;5059245;28;20047;-75
2022/01/07 04:41:49;;;;;;;17.58;9.52;;;4.00;99.90;;;;;;5055413;28;20127;-75
2022/01/07 04:44:16;;;;;;;18.77;9.90;;;4.60;99.90;;;;;;5055266;28;20048;-76
2022/01/07 04:46:42;;;;;;;16.13;9.30;;;4.20;99.90;;;;;;5051516;28;20109;-75
2022/01/07 04:49:08;;;;;;;20.17;10.15;;;4.00;99.90;;;;;;5054803;28;20053;-76
2022/01/07 04:51:34;;;;;;;19.13;10.18;;;4.00;99.90;;;;;;5056955;28;20055;-75
2022/01/07 04:53:59;;;;;;;20.42;10.70;;;5.00;99.90;;;;;;5053975;28;20044;-75
2022/01/07 04:56:25;;;;;;;21.48;10.73;;;4.70;99.90;;;;;;5072263;28;20404;-75
2022/01/07 04:58:51;;;;;;;17.27;8.25;;;5.00;99.90;;;;;;5071399;28;20036;-75
2022/01/07 05:01:16;;;;;;;19.15;9.10;;;4.50;99.90;;;;;;5054079;28;20045;-75
2022/01/07 05:03:42;;;;;;;18.15;8.65;;;4.00;99.90;;;;;;5065063;28;20079;-75
2022/01/07 05:08:59;;;;;;;17.55;9.10;;;4.00;99.90;;;;;;5058458;28;20090;-75
2022/01/07 05:11:25;;;;;;;20.23;10.30;;;4.10;99.90;;;;;;5062005;28;20040;-75
2022/01/07 05:13:51;;;;;;;24.52;11.68;;;4.40;99.90;;;;;;5088480;28;20036;-75
2022/01/07 05:16:16;;;;;;;22.48;11.00;;;4.10;99.90;;;;;;5051077;28;20040;-75
2022/01/07 05:18:42;;;;;;;19.23;10.68;;;4.20;99.90;;;;;;5047860;28;20115;-75
2022/01/07 05:21:08;;;;;;;19.60;10.23;;;4.10;99.90;;;;;;5089453;28;20439;-75
2022/01/07 05:23:33;;;;;;;14.45;8.13;;;4.50;99.90;;;;;;5066673;28;20059;-75
2022/01/07 05:25:59;;;;;;;18.63;10.45;;;4.20;99.90;;;;;;5103756;28;20468;-74
2022/01/07 05:28:25;;;;;;;20.30;10.18;;;4.10;99.90;;;;;;5082120;28;20043;-74
2022/01/07 05:30:50;;;;;;;18.98;9.82;;;4.10;99.90;;;;;;5106398;28;20063;-75
2022/01/07 05:33:16;;;;;;;21.45;10.77;;;4.20;99.90;;;;;;5067000;28;20045;-75
2022/01/07 05:35:42;;;;;;;17.63;9.02;;;4.50;99.90;;;;;;5054754;28;20147;-75
2022/01/07 05:38:08;;;;;;;15.32;8.82;;;4.70;99.90;;;;;;5094759;28;20044;-74
2022/01/07 05:40:33;;;;;;;13.75;7.82;;;4.30;99.90;;;;;;5104371;28;20068;-74
2022/01/07 05:42:59;;;;;;;13.75;8.30;;;4.20;99.90;;;;;;5062046;28;20059;-74
2022/01/07 05:45:25;;;;;;;20.85;9.82;;;4.20;99.90;;;;;;5077943;28;20139;-75
2022/01/07 05:47:50;;;;;;;18.98;9.80;;;4.20;99.90;;;;;;5062948;28;20067;-74
2022/01/07 05:50:16;;;;;;;15.48;7.70;;;5.00;99.90;;;;;;5103397;28;20392;-74
2022/01/07 05:52:42;;;;;;;22.75;10.10;;;4.20;99.90;;;;;;5019665;28;20182;-74
2022/01/07 05:55:08;;;;;;;15.52;8.23;;;4.20;99.90;;;;;;5099981;28;20033;-74
2022/01/07 05:57:35;;;;;;;16.30;8.30;;;4.20;99.90;;;;;;5053803;28;20051;-74
2022/01/07 06:00:02;;;;;;;13.70;7.05;;;4.20;99.90;;;;;;5088288;28;20041;-74
2022/01/07 06:02:28;;;;;;;16.85;10.32;;;4.20;99.90;;;;;;5052068;28;20036;-74
2022/01/07 06:04:54;;;;;;;19.35;9.00;;;4.30;99.90;;;;;;5084140;28;20044;-75
2022/01/07 06:07:20;;;;;;;15.63;9.00;;;4.40;99.90;;;;;;5070409;28;20141;-74
2022/01/07 06:09:46;;;;;;;18.75;10.20;;;4.20;99.90;;;;;;5052313;28;20041;-74
2022/01/07 06:12:12;;;;;;;16.08;7.90;;;5.00;99.90;;;;;;5094573;28;20055;-74
2022/01/07 06:14:37;;;;;;;17.67;9.45;;;4.30;99.90;;;;;;5061736;28;20028;-74
2022/01/07 06:17:03;;;;;;;17.02;9.73;;;4.50;99.90;;;;;;5096241;28;20090;-74
2022/01/07 06:19:29;;;;;;;17.00;9.00;;;5.00;99.90;;;;;;5102460;28;20069;-74
2022/01/07 06:21:55;;;;;;;17.73;10.05;;;4.30;99.90;;;;;;5054422;28;20045;-74
2022/01/07 06:24:20;;;;;;;13.25;7.72;;;4.60;99.90;;;;;;5025951;28;20048;-74
2022/01/07 06:26:46;;;;;;;17.95;9.90;;;4.30;99.90;;;;;;5064614;28;20477;-74
2022/01/07 06:29:12;;;;;;;11.82;7.10;;;4.30;99.90;;;;;;5076630;28;20262;-74
2022/01/07 06:31:37;;;;;;;15.82;10.18;;;4.30;99.90;;;;;;5054946;28;20040;-74
2022/01/07 06:34:03;;;;;;;16.15;9.32;;;4.40;99.90;;;;;;5068911;28;20044;-74
2022/01/07 06:36:29;;;;;;;17.85;8.90;;;4.30;99.90;;;;;;5045398;28;20145;-74
2022/01/07 06:38:55;;;;;;;14.90;8.45;;;4.50;99.90;;;;;;5077113;28;20056;-74
2022/01/07 06:41:21;;;;;;;19.13;9.60;;;4.30;99.90;;;;;;5054707;28;20044;-74
2022/01/07 06:43:46;;;;;;;13.90;8.45;;;5.00;99.90;;;;;;5066689;28;20132;-74
2022/01/07 06:46:13;;;;;;;14.65;8.90;;;4.30;99.90;;;;;;5076271;28;20056;-74
2022/01/07 06:48:41;;;;;;;16.35;9.23;;;4.60;99.90;;;;;;5099010;28;20037;-74
2022/01/07 06:51:07;;;;;;;15.82;8.48;;;4.60;99.90;;;;;;5054932;28;20040;-74
2022/01/07 06:53:32;;;;;;;16.05;7.72;;;4.40;99.90;;;;;;5067875;28;20041;-74
2022/01/07 06:55:58;;;;;;;12.82;7.32;;;4.40;99.90;;;;;;5064188;28;20382;-74
2022/01/07 06:58:24;;;;;;;13.98;8.23;;;4.40;99.90;;;;;;5099756;28;20040;-75
2022/01/07 07:00:50;;;;;;;12.40;7.68;;;4.40;99.90;;;;;;5019350;28;20045;-74
2022/01/07 07:03:16;;;;;;;12.13;6.57;;;4.70;99.90;;;;;;5097377;28;20033;-74
2022/01/07 07:05:41;;;;;;;14.57;8.65;;;4.90;99.90;;;;;;5085309;28;20443;-74
2022/01/07 07:08:07;;;;;;;14.73;8.73;;;4.40;99.90;;;;;;5082614;28;20044;-74
2022/01/07 07:10:33;;;;;;;17.17;9.77;;;4.50;99.90;;;;;;5059443;28;20160;-74
2022/01/07 07:12:58;;;;;;;17.73;9.52;;;4.40;99.90;;;;;;5098371;28;20469;-74
2022/01/07 07:15:24;;;;;;;15.80;8.05;;;4.50;99.90;;;;;;5054489;28;20047;-74
2022/01/07 07:17:50;;;;;;;14.85;6.15;;;4.50;99.90;;;;;;5058971;28;20506;-73
2022/01/07 07:20:16;;;;;;;16.42;9.23;;;4.50;99.90;;;;;;5081892;28;20045;-74
2022/01/07 07:22:42;;;;;;;17.67;7.93;;;5.20;99.90;;;;;;5087795;28;20480;-74
2022/01/07 07:25:08;;;;;;;15.77;9.15;;;4.50;99.90;;;;;;5048165;28;20053;-74
2022/01/07 07:27:36;;;;;;;14.93;8.68;;;4.50;99.90;;;;;;5087763;28;20040;-74
2022/01/07 07:30:04;;;;;;;18.60;10.15;;;4.50;99.90;;;;;;5084820;28;20044;-74
2022/01/07 07:32:31;;;;;;;18.13;10.38;;;4.50;99.90;;;;;;5080707;28;20123;-74
2022/01/07 07:35:03;;;;;;;14.70;8.82;;;4.60;99.90;;;;;;5036393;28;20048;-74
2022/01/07 07:37:28;;;;;;;12.25;7.88;;;4.60;99.90;;;;;;5084729;28;20041;-74
2022/01/07 07:39:55;;;;;;;15.93;7.45;;;4.60;99.90;;;;;;5067346;28;20318;-74
2022/01/07 07:42:20;;;;;;;16.10;9.27;;;5.10;99.90;;;;;;5055294;28;20070;-74
2022/01/07 07:44:46;;;;;;;15.35;8.00;;;4.60;99.90;;;;;;5041660;28;20071;-73
2022/01/07 07:47:12;;;;;;;14.27;8.25;;;4.60;99.90;;;;;;5055886;28;20052;-74
2022/01/07 07:49:38;;;;;;;13.75;8.25;;;4.80;99.90;;;;;;5072350;28;20534;-74
2022/01/07 07:52:04;;;;;;;16.17;8.70;;;4.90;99.90;;;;;;5083278;28;20385;-73
2022/01/07 07:54:30;;;;;;;17.58;9.75;;;4.70;99.90;;;;;;5074318;28;20048;-74
2022/01/07 07:56:58;;;;;;;15.68;9.82;;;5.40;99.90;;;;;;5067451;28;20045;-73
2022/01/07 07:59:25;;;;;;;14.65;9.02;;;5.10;99.90;;;;;;5063372;28;20076;-74
2022/01/07 08:01:51;;;;;;;17.98;8.80;;;4.70;99.90;;;;;;5056080;28;20491;-74
2022/01/07 08:04:19;;;;;;;12.35;7.97;;;4.80;99.90;;;;;;5104232;28;20036;-75
2022/01/07 08:06:45;;;;;;;13.43;8.27;;;4.70;99.90;;;;;;5089327;28;20040;-73
2022/01/07 08:09:12;;;;;;;18.13;9.27;;;4.80;99.90;;;;;;5101488;28;20481;-73
2022/01/07 08:11:49;;;;;;;20.38;10.85;;;5.10;99.90;;;;;;5107159;28;20068;-73
2022/01/07 08:17:00;;;;;;;17.02;9.77;;;5.10;99.90;;;;;;5106760;28;20039;-73
2022/01/07 08:19:26;;;;;;;18.95;10.65;;;4.90;99.90;;;;;;5103601;27;20036;-73
2022/01/07 08:21:52;;;;;;;19.65;10.93;;;4.90;99.90;;;;;;5084880;28;20037;-74
2022/01/07 08:24:18;;;;;;;23.00;11.40;;;4.90;99.90;;;;;;5036474;28;20040;-73
2022/01/07 08:26:44;;;;;;;21.45;10.98;;;4.90;99.90;;;;;;5074565;28;20504;-74
2022/01/07 08:29:12;;;;;;;26.83;12.68;;;4.90;99.90;;;;;;5056344;28;20045;-73
2022/01/07 08:36:51;;;;;;;26.35;12.13;;;5.00;99.90;;;;;;5083611;28;20048;-73
2022/01/07 08:39:16;;;;;;;20.67;11.85;;;5.20;99.90;;;;;;5074808;28;20049;-73
2022/01/07 08:41:42;;;;;;;25.08;12.90;;;5.30;99.90;;;;;;5039972;28;20060;-73
2022/01/07 08:44:09;;;;;;;27.15;12.20;;;5.80;99.90;;;;;;5107634;28;20055;-73
2022/01/07 08:46:36;;;;;;;21.65;12.05;;;5.10;99.90;;;;;;5105177;28;20068;-74
2022/01/07 08:49:04;;;;;;;23.80;11.20;;;5.10;99.90;;;;;;5051904;28;20048;-74
2022/01/07 08:51:29;;;;;;;26.27;13.23;;;5.20;99.90;;;;;;5095471;27;20048;-75
2022/01/07 08:53:56;;;;;;;23.92;11.65;;;5.20;99.90;;;;;;5082629;28;20055;-75
2022/01/07 08:56:25;;;;;;;27.65;14.18;;;5.20;99.90;;;;;;5084859;28;20048;-75
2022/01/07 08:58:52;;;;;;;26.42;13.52;;;5.30;99.90;;;;;;5072580;28;20040;-75
2022/01/07 09:01:19;;;;;;;22.48;11.88;;;5.40;99.90;;;;;;5071146;28;20485;-74
2022/01/07 09:03:45;;;;;;;18.65;9.45;;;6.00;99.90;;;;;;5073135;28;20036;-74
2022/01/07 09:06:11;;;;;;;26.73;12.63;;;5.60;99.90;;;;;;5093983;28;20068;-74
2022/01/07 09:08:38;;;;;;;23.13;11.88;;;5.50;99.90;;;;;;5054321;28;20045;-74
2022/01/07 09:11:03;;;;;;;27.63;15.18;;;5.50;99.90;;;;;;5050869;28;20048;-75
2022/01/07 09:13:29;;;;;;;23.48;12.40;;;5.50;99.90;;;;;;5106944;28;20040;-75
2022/01/07 09:15:55;;;;;;;29.25;15.18;;;5.60;99.90;;;;;;5065395;28;20041;-75
2022/01/07 09:18:21;;;;;;;28.30;13.25;;;5.80;99.90;;;;;;5095796;28;20129;-75
2022/01/07 09:20:48;;;;;;;23.85;12.38;;;5.70;99.90;;;;;;5103425;28;20162;-75
2022/01/07 09:23:14;;;;;;;26.10;13.15;;;5.70;99.90;;;;;;5101361;28;20044;-75
2022/01/07 09:25:40;;;;;;;30.02;14.90;;;5.70;99.90;;;;;;5084539;28;20075;-75
2022/01/07 09:28:08;;;;;;;30.05;14.13;;;6.10;99.90;;;;;;5078982;28;20040;-75
2022/01/07 09:30:35;;;;;;;29.80;15.38;;;5.70;99.90;;;;;;5104371;28;20373;-75
2022/01/07 09:33:02;;;;;;;24.92;13.38;;;5.80;99.90;;;;;;5066222;28;20040;-76
2022/01/07 09:35:27;;;;;;;30.13;13.98;;;5.80;99.90;;;;;;5097662;28;20040;-75
2022/01/07 09:37:54;;;;;;;30.35;13.75;;;5.80;99.90;;;;;;5056174;28;20046;-75
2022/01/07 09:40:20;;;;;;;30.80;13.63;;;6.00;99.90;;;;;;5062385;28;20040;-75
2022/01/07 09:43:01;;;;;;;25.80;13.65;;;5.80;99.90;;;;;;5088600;28;20037;-75
2022/01/07 09:45:28;;;;;;;34.28;14.82;;;5.80;99.90;;;;;;5105689;28;20496;-75
2022/01/07 09:47:54;;;;;;;26.95;13.13;;;6.00;99.90;;;;;;5060023;28;20054;-77
2022/01/07 09:50:21;;;;;;;34.90;15.90;;;6.40;99.90;;;;;;5072670;28;20190;-75
2022/01/07 09:52:47;;;;;;;28.48;13.30;;;5.80;99.90;;;;;;5065267;28;20396;-81
2022/01/07 09:55:13;;;;;;;35.28;16.33;;;5.80;99.90;;;;;;5054213;28;20045;-75
2022/01/07 09:57:39;;;;;;;29.30;13.30;;;5.80;99.90;;;;;;5081976;28;20362;-76
2022/01/07 10:00:07;;;;;;;29.95;15.23;;;5.90;99.90;;;;;;5086719;28;20082;-76
2022/01/07 10:02:32;;;;;;;26.42;12.75;;;5.90;99.90;;;;;;5071334;28;20047;-75
2022/01/07 10:05:15;;;;;;;28.00;13.18;;;5.90;99.90;;;;;;5088342;28;20041;-74
2022/01/07 10:07:42;;;;;;;33.35;15.57;;;5.90;99.90;;;;;;5072348;28;20047;-76
2022/01/07 10:10:11;;;;;;;31.38;14.73;;;5.90;99.90;;;;;;5097175;28;20055;-79
2022/01/07 10:13:03;;;;;;;34.00;15.52;;;6.00;99.90;;;;;;5084149;28;20055;-77
2022/01/07 10:15:31;;;;;;;33.28;16.35;;;6.10;99.90;;;;;;5077403;28;20127;-75
2022/01/07 10:18:10;;;;;;;28.85;12.82;;;6.70;99.90;;;;;;5084499;28;20139;-80
2022/01/07 10:20:44;;;;;;;29.60;15.23;;;6.20;99.90;;;;;;5102752;28;20083;-75
2022/01/07 10:23:23;;;;;;;29.50;15.10;;;6.20;99.90;;;;;;5083720;28;20040;-75
2022/01/07 10:25:54;;;;;;;23.05;12.32;;;6.20;99.90;;;;;;5069149;28;20119;-77
2022/01/07 10:28:21;;;;;;;18.77;7.93;;;6.40;99.90;;;;;;5096471;28;20393;-77
2022/01/07 10:30:54;;;;;;;27.58;11.65;;;5.90;99.90;;;;;;5083704;28;20056;-78
2022/01/07 10:33:20;;;;;;;21.45;10.05;;;5.80;99.90;;;;;;5071935;28;20123;-77
2022/01/07 10:35:51;;;;;;;26.42;11.82;;;5.80;99.90;;;;;;5070702;28;20120;-76
2022/01/07 10:38:19;;;;;;;12.75;6.70;;;5.90;99.90;;;;;;5067157;28;20052;-76
2022/01/07 10:40:47;;;;;;;23.98;12.65;;;6.00;99.90;;;;;;5095568;28;20161;-76
2022/01/07 10:43:32;;;;;;;30.83;12.82;;;6.10;99.90;;;;;;5088514;28;20446;-76
2022/01/07 10:46:01;;;;;;;36.40;15.32;;;6.10;99.90;;;;;;5054804;28;20051;-76
2022/01/07 10:48:47;;;;;;;36.90;17.58;;;6.20;99.90;;;;;;5053039;28;20477;-76
2022/01/07 10:51:18;;;;;;;32.20;13.63;;;6.30;99.90;;;;;;5071220;28;20504;-76
2022/01/07 10:53:53;;;;;;;23.10;10.73;;;6.30;99.90;;;;;;5071240;28;20044;-75
2022/01/07 10:56:21;;;;;;;25.20;9.27;;;6.30;99.90;;;;;;5071339;28;20040;-76
2022/01/07 10:58:47;;;;;;;21.60;9.77;;;6.30;99.90;;;;;;5069580;28;20047;-75
2022/01/07 11:01:19;;;;;;;20.70;9.88;;;6.30;99.90;;;;;;5071104;28;20110;-75
2022/01/07 11:03:48;;;;;;;19.00;8.80;;;6.40;99.90;;;;;;5070883;28;20099;-75
2022/01/07 11:06:14;;;;;;;23.73;10.88;;;6.60;99.90;;;;;;5104773;28;20040;-75
2022/01/07 11:08:41;;;;;;;28.33;13.70;;;6.80;99.90;;;;;;5085276;28;20072;-75
2022/01/07 11:11:08;;;;;;;15.85;8.40;;;6.70;99.90;;;;;;5105042;28;20076;-75
2022/01/07 11:13:36;;;;;;;13.48;7.38;;;6.80;99.90;;;;;;5087514;28;20040;-75
2022/01/07 11:16:02;;;;;;;12.63;6.07;;;7.10;99.90;;;;;;5087763;28;20044;-75
2022/01/07 11:18:28;;;;;;;13.13;6.60;;;6.80;99.90;;;;;;5052705;28;20477;-74
2022/01/07 11:20:58;;;;;;;11.90;5.85;;;6.70;99.90;;;;;;5104161;28;20106;-74
2022/01/07 11:23:31;;;;;;;12.13;5.28;;;6.50;99.90;;;;;;5054250;28;20132;-75
2022/01/07 11:26:01;;;;;;;9.35;4.63;;;6.30;99.90;;;;;;5070835;28;20040;-74
2022/01/07 11:28:27;;;;;;;14.60;6.70;;;6.20;99.90;;;;;;5070298;28;20055;-74
2022/01/07 11:31:13;;;;;;;14.82;6.60;;;6.30;99.90;;;;;;5069899;28;20033;-74
2022/01/07 11:33:39;;;;;;;12.77;6.80;;;6.10;99.90;;;;;;5054173;28;20075;-75
2022/01/07 11:36:32;;;;;;;10.30;6.38;;;6.10;99.90;;;;;;5070752;28;20040;-75
2022/01/07 11:39:03;;;;;;;11.57;5.60;;;6.20;99.90;;;;;;5052671;28;20433;-75
2022/01/07 11:41:55;;;;;;;13.63;6.97;;;6.40;99.90;;;;;;5060894;28;20036;-75
2022/01/07 11:44:29;;;;;;;10.95;5.47;;;6.60;99.90;;;;;;5054039;28;20040;-74
2022/01/07 11:47:13;;;;;;;8.68;4.25;;;6.70;99.90;;;;;;5070725;28;20491;-74
2022/01/07 11:49:39;;;;;;;15.77;5.82;;;6.60;99.90;;;;;;5069156;28;20041;-75
2022/01/07 11:52:28;;;;;;;13.82;6.00;;;6.50;99.90;;;;;;5087323;28;20055;-75
2022/01/07 11:55:20;;;;;;;12.50;6.82;;;6.60;99.90;;;;;;5103896;28;20041;-75
2022/01/07 11:57:59;;;;;;;16.70;6.95;;;6.60;99.90;;;;;;5070382;28;20048;-75
2022/01/07 12:01:00;;;;;;;18.35;7.70;;;6.40;99.90;;;;;;5048448;28;20037;-75
2022/01/07 12:03:34;;;;;;;15.00;8.10;;;6.40;99.90;;;;;;5101338;28;20040;-74
2022/01/07 12:06:24;;;;;;;22.60;9.05;;;6.50;99.90;;;;;;5104480;28;20044;-74
2022/01/07 12:08:56;;;;;;;13.73;6.97;;;6.60;99.90;;;;;;5066828;28;20141;-75
2022/01/07 12:11:36;;;;;;;18.30;8.00;;;6.70;99.90;;;;;;5069490;28;20037;-75
2022/01/07 12:14:03;;;;;;;19.17;8.98;;;6.70;99.90;;;;;;5070297;28;20178;-74
2022/01/07 12:16:34;;;;;;;20.20;8.40;;;6.70;99.90;;;;;;5070374;28;20049;-75
2022/01/07 12:19:26;;;;;;;16.38;8.68;;;6.50;99.90;;;;;;5053034;28;20055;-75
2022/01/07 12:21:56;;;;;;;17.40;8.25;;;6.40;99.90;;;;;;5053200;28;20385;-75
2022/01/07 12:24:28;;;;;;;20.10;9.48;;;6.40;99.90;;;;;;5052257;28;20101;-75
2022/01/07 12:27:09;;;;;;;20.73;8.45;;;6.40;99.90;;;;;;5073919;28;20054;-75
2022/01/07 12:29:38;;;;;;;18.50;8.85;;;6.30;99.90;;;;;;5073293;28;20119;-75
2022/01/07 12:32:05;;;;;;;17.17;8.95;;;6.30;99.90;;;;;;5055730;28;20048;-75
2022/01/07 12:34:34;;;;;;;23.02;9.30;;;6.30;99.90;;;;;;5056636;28;20041;-75
2022/01/07 12:37:05;;;;;;;15.43;7.22;;;6.40;99.90;;;;;;5056924;28;20048;-75
2022/01/07 12:39:37;;;;;;;18.80;9.95;;;6.20;99.90;;;;;;5072853;28;20043;-75
2022/01/07 12:42:03;;;;;;;22.13;9.05;;;6.30;99.90;;;;;;5082420;28;20381;-74
2022/01/07 12:44:41;;;;;;;25.83;9.77;;;6.70;99.90;;;;;;5056942;28;20136;-75
2022/01/07 12:47:13;;;;;;;11.02;5.70;;;7.20;99.90;;;;;;5056988;28;20179;-74
2022/01/07 12:49:43;;;;;;;15.63;7.43;;;7.80;99.90;;;;;;5071693;28;20055;-76
2022/01/07 12:52:31;;;;;;;13.02;5.68;;;6.90;99.90;;;;;;5083797;28;20058;-75
2022/01/07 12:54:59;;;;;;;24.98;7.38;;;6.70;99.90;;;;;;5076530;28;20131;-74
2022/01/07 12:57:44;;;;;;;12.35;6.43;;;6.50;99.90;;;;;;5083885;28;20048;-73
2022/01/07 13:00:15;;;;;;;8.95;4.80;;;6.40;99.90;;;;;;5064366;28;20423;-73